LFMNLFTH

Guest
Details From LFMN - Nice/Cote d'Azur
To LFTH - Le Palyvestre Navy
Flight Number -
Tags generated
Created
Modified
Stats Distance 57 nm / 106 km
Max Altitude 7,400 ft / 2,256 m
Waypoints 3
Social Downloads 5
Likes 0
Share VATSIM

Download

Looking for another format? Having issues loading an existing format? Contact us
Advertisement - Login to hide

Notes

Basic altitude profile: - Ascent Rate: 2500ft/min - Ascent Speed: 250kts - Cruise Altitude: 10000ft - Cruise Speed: 275kts - Descent Rate: 2500ft/min - Descent Speed: 250kts

Route

LFMN RUBIT LFTH

ID Type Via Altitude Latitude Longitude Leg Dist Tot Dist Heading (true) Name
O LFMN APT - 0 ft / 0 m 43.65798˚ 7.21536˚ - 0 nm - Nice/Cote d'Azur
RUBIT FIX - 7,400 ft / 2,256 m 43.22222˚ 6.41222˚ 43 nm 43 nm 234° / 233° -
O LFTH APT - 0 ft / 0 m 43.09812˚ 6.14976˚ 13 nm 57 nm 237° / 237° Le Palyvestre Navy

Altitude Profile

Advertisement - Login to hide

LFMN

Details ICAO LFMN (NCE)
Name Nice/Cote d'Azur
Region France
Timezone Unknown (UTC+0.0)
Stats Elevation 12 ft / 4 m (AMSL)
Location 43.657981° 7.215362°
Runways 2
Magnetic Variation 2.065° E

METAR

LFMN 212300Z 10012KT 9999 -RA SCT016 SCT023 BKN031 18/15 Q1012 TEMPO TSRA

Decode

TAF

TAF LFMN 212000Z 2121/2303 08012KT 9999 SCT040 BKN080 TEMPO 2121/2212 SHRA BKN040 SCT060TCU PROB40 TEMPO 2121/2210 VRB10G20KT 4000 TSRA BKN030 SCT060CB BECMG 2201/2203 22006KT BECMG 2218/2221 33010KT

Decode

Departure Runways

ID Width Length Bearing (true) Bearing (mag) Surface Threshold Offset Overrun Length
04L 148 ft / 45 m 8,427 ft / 2,569 m 44.85° 42.79° Asphalt 0 ft / 0 m 131 ft / 40 m
04R 148 ft / 45 m 9,720 ft / 2,963 m 44.60° 42.54° Asphalt 0 ft / 0 m 427 ft / 130 m
22L 148 ft / 45 m 9,720 ft / 2,963 m 224.62° 222.56° Asphalt 0 ft / 0 m 525 ft / 160 m
22R 148 ft / 45 m 8,427 ft / 2,569 m 224.87° 222.81° Asphalt 0 ft / 0 m 492 ft / 150 m

LFTH

Details ICAO LFTH (TLN)
Name Le Palyvestre Navy
Region France
Timezone Europe/Paris (UTC+2.0)
Stats Elevation 6 ft / 2 m (AMSL)
Location 43.098120° 6.149761°
Runways 2
Magnetic Variation 1.821° E

METAR

LFTH 212300Z AUTO 33005KT 290V360 8000 -RA FEW036/// SCT062/// OVC090/// ///CB 16/15 Q1012

Decode

TAF

TAF LFTH 211701Z 2117/2215 CNL

Decode

Destination Runways

ID Width Length Bearing (true) Bearing (mag) Surface Threshold Offset Overrun Length
05 148 ft / 45 m 6,956 ft / 2,120 m 51.12° 49.30° Concrete 722 ft / 220 m 361 ft / 110 m
14 164 ft / 50 m 6,302 ft / 1,921 m 135.18° 133.36° Concrete 951 ft / 290 m 0 ft / 0 m
23 148 ft / 45 m 6,956 ft / 2,120 m 231.13° 229.31° Concrete 0 ft / 0 m 141 ft / 43 m
32 164 ft / 50 m 6,302 ft / 1,921 m 315.20° 313.38° Concrete 295 ft / 90 m 443 ft / 135 m

Popular Alternatives